sensor_id;sensor_type;location;lat;lon;timestamp;P1;durP1;ratioP1;P2;durP2;ratioP2
38785;SDS011;24535;45.508;12.252;2023-03-01T00:00:39;14.10;;;11.48;;
38785;SDS011;24535;45.508;12.252;2023-03-01T00:03:04;16.55;;;12.05;;
38785;SDS011;24535;45.508;12.252;2023-03-01T00:05:30;17.25;;;11.38;;
38785;SDS011;24535;45.508;12.252;2023-03-01T00:07:55;15.57;;;12.07;;
38785;SDS011;24535;45.508;12.252;2023-03-01T00:10:21;17.08;;;12.10;;
38785;SDS011;24535;45.508;12.252;2023-03-01T00:12:46;14.60;;;11.15;;
38785;SDS011;24535;45.508;12.252;2023-03-01T00:15:12;14.77;;;12.07;;
38785;SDS011;24535;45.508;12.252;2023-03-01T00:17:37;16.55;;;11.15;;
38785;SDS011;24535;45.508;12.252;2023-03-01T00:20:03;15.52;;;11.40;;
38785;SDS011;24535;45.508;12.252;2023-03-01T00:22:33;16.17;;;11.60;;
38785;SDS011;24535;45.508;12.252;2023-03-01T00:24:58;14.05;;;11.40;;
38785;SDS011;24535;45.508;12.252;2023-03-01T00:27:24;19.55;;;12.05;;
38785;SDS011;24535;45.508;12.252;2023-03-01T00:29:49;16.27;;;12.35;;
38785;SDS011;24535;45.508;12.252;2023-03-01T00:32:15;16.85;;;12.05;;
38785;SDS011;24535;45.508;12.252;2023-03-01T00:34:41;15.85;;;10.98;;
38785;SDS011;24535;45.508;12.252;2023-03-01T00:37:06;15.85;;;11.48;;
38785;SDS011;24535;45.508;12.252;2023-03-01T00:39:32;16.35;;;11.40;;
38785;SDS011;24535;45.508;12.252;2023-03-01T00:41:58;14.63;;;10.80;;
38785;SDS011;24535;45.508;12.252;2023-03-01T00:44:24;13.75;;;11.63;;
38785;SDS011;24535;45.508;12.252;2023-03-01T00:46:49;15.45;;;11.23;;
38785;SDS011;24535;45.508;12.252;2023-03-01T00:49:15;13.95;;;11.45;;
38785;SDS011;24535;45.508;12.252;2023-03-01T00:51:41;17.08;;;11.57;;
38785;SDS011;24535;45.508;12.252;2023-03-01T00:54:09;16.67;;;11.75;;
38785;SDS011;24535;45.508;12.252;2023-03-01T00:56:35;17.50;;;11.63;;
38785;SDS011;24535;45.508;12.252;2023-03-01T00:59:01;15.57;;;11.02;;
38785;SDS011;24535;45.508;12.252;2023-03-01T01:01:28;16.88;;;10.88;;
38785;SDS011;24535;45.508;12.252;2023-03-01T01:03:59;15.50;;;11.88;;
38785;SDS011;24535;45.508;12.252;2023-03-01T01:06:28;18.48;;;12.13;;
38785;SDS011;24535;45.508;12.252;2023-03-01T01:08:55;17.30;;;11.80;;
38785;SDS011;24535;45.508;12.252;2023-03-01T01:11:22;17.13;;;10.82;;
38785;SDS011;24535;45.508;12.252;2023-03-01T01:13:49;18.00;;;12.55;;
38785;SDS011;24535;45.508;12.252;2023-03-01T01:16:16;13.90;;;10.98;;
38785;SDS011;24535;45.508;12.252;2023-03-01T01:18:43;17.52;;;11.48;;
38785;SDS011;24535;45.508;12.252;2023-03-01T01:21:10;14.63;;;11.13;;
38785;SDS011;24535;45.508;12.252;2023-03-01T01:23:38;14.68;;;10.63;;
38785;SDS011;24535;45.508;12.252;2023-03-01T01:26:08;16.83;;;11.70;;
38785;SDS011;24535;45.508;12.252;2023-03-01T01:28:36;13.48;;;11.15;;
38785;SDS011;24535;45.508;12.252;2023-03-01T01:31:01;15.13;;;11.13;;
38785;SDS011;24535;45.508;12.252;2023-03-01T01:33:27;12.95;;;9.52;;
38785;SDS011;24535;45.508;12.252;2023-03-01T01:35:53;16.80;;;11.10;;
38785;SDS011;24535;45.508;12.252;2023-03-01T01:38:19;14.25;;;10.90;;
38785;SDS011;24535;45.508;12.252;2023-03-01T01:40:45;19.40;;;10.77;;
38785;SDS011;24535;45.508;12.252;2023-03-01T01:43:19;14.02;;;10.75;;
38785;SDS011;24535;45.508;12.252;2023-03-01T01:45:48;15.07;;;11.48;;
38785;SDS011;24535;45.508;12.252;2023-03-01T01:48:15;14.18;;;10.93;;
38785;SDS011;24535;45.508;12.252;2023-03-01T01:50:45;14.80;;;10.90;;
38785;SDS011;24535;45.508;12.252;2023-03-01T01:53:20;14.23;;;11.07;;
38785;SDS011;24535;45.508;12.252;2023-03-01T01:55:47;14.65;;;11.40;;
38785;SDS011;24535;45.508;12.252;2023-03-01T01:58:18;17.60;;;11.25;;
38785;SDS011;24535;45.508;12.252;2023-03-01T02:00:46;14.25;;;12.02;;
38785;SDS011;24535;45.508;12.252;2023-03-01T02:03:14;14.30;;;10.90;;
38785;SDS011;24535;45.508;12.252;2023-03-01T02:08:28;14.23;;;11.38;;
38785;SDS011;24535;45.508;12.252;2023-03-01T02:10:57;14.33;;;11.03;;
38785;SDS011;24535;45.508;12.252;2023-03-01T02:13:24;15.90;;;11.15;;
38785;SDS011;24535;45.508;12.252;2023-03-01T02:15:50;16.13;;;11.35;;
38785;SDS011;24535;45.508;12.252;2023-03-01T02:18:17;15.23;;;10.80;;
38785;SDS011;24535;45.508;12.252;2023-03-01T02:20:50;13.85;;;10.73;;
38785;SDS011;24535;45.508;12.252;2023-03-01T02:23:32;13.55;;;10.50;;
38785;SDS011;24535;45.508;12.252;2023-03-01T02:28:33;15.02;;;9.90;;
38785;SDS011;24535;45.508;12.252;2023-03-01T02:31:04;12.50;;;9.70;;
38785;SDS011;24535;45.508;12.252;2023-03-01T02:33:50;15.60;;;11.48;;
38785;SDS011;24535;45.508;12.252;2023-03-01T02:36:20;14.95;;;11.23;;
38785;SDS011;24535;45.508;12.252;2023-03-01T02:38:52;15.63;;;11.90;;
38785;SDS011;24535;45.508;12.252;2023-03-01T02:41:23;15.00;;;10.48;;
38785;SDS011;24535;45.508;12.252;2023-03-01T02:43:51;14.27;;;10.02;;
38785;SDS011;24535;45.508;12.252;2023-03-01T02:46:19;15.23;;;11.48;;
38785;SDS011;24535;45.508;12.252;2023-03-01T02:48:48;14.23;;;10.68;;
38785;SDS011;24535;45.508;12.252;2023-03-01T02:56:30;17.40;;;10.07;;
38785;SDS011;24535;45.508;12.252;2023-03-01T02:58:56;14.45;;;9.82;;
38785;SDS011;24535;45.508;12.252;2023-03-01T03:01:26;13.10;;;10.10;;
38785;SDS011;24535;45.508;12.252;2023-03-01T03:04:04;12.05;;;9.55;;
38785;SDS011;24535;45.508;12.252;2023-03-01T03:06:37;14.00;;;10.57;;
38785;SDS011;24535;45.508;12.252;2023-03-01T03:09:03;12.18;;;9.07;;
38785;SDS011;24535;45.508;12.252;2023-03-01T03:11:29;12.63;;;10.10;;
38785;SDS011;24535;45.508;12.252;2023-03-01T03:13:55;13.48;;;9.27;;
38785;SDS011;24535;45.508;12.252;2023-03-01T03:16:21;15.82;;;9.65;;
38785;SDS011;24535;45.508;12.252;2023-03-01T03:18:47;11.60;;;9.10;;
38785;SDS011;24535;45.508;12.252;2023-03-01T03:21:13;14.43;;;10.73;;
38785;SDS011;24535;45.508;12.252;2023-03-01T03:23:39;16.17;;;10.13;;
38785;SDS011;24535;45.508;12.252;2023-03-01T03:26:05;15.18;;;10.25;;
38785;SDS011;24535;45.508;12.252;2023-03-01T03:28:31;15.55;;;10.85;;
38785;SDS011;24535;45.508;12.252;2023-03-01T03:33:32;13.00;;;9.90;;
38785;SDS011;24535;45.508;12.252;2023-03-01T03:35:58;12.27;;;9.60;;
38785;SDS011;24535;45.508;12.252;2023-03-01T03:38:23;18.42;;;10.60;;
38785;SDS011;24535;45.508;12.252;2023-03-01T03:40:50;12.77;;;9.80;;
38785;SDS011;24535;45.508;12.252;2023-03-01T03:43:18;11.25;;;9.95;;
38785;SDS011;24535;45.508;12.252;2023-03-01T03:45:46;16.38;;;10.13;;
38785;SDS011;24535;45.508;12.252;2023-03-01T03:48:18;15.18;;;10.32;;
38785;SDS011;24535;45.508;12.252;2023-03-01T03:50:47;12.85;;;9.65;;
38785;SDS011;24535;45.508;12.252;2023-03-01T03:53:15;15.50;;;10.10;;
38785;SDS011;24535;45.508;12.252;2023-03-01T03:55:40;10.90;;;8.90;;
38785;SDS011;24535;45.508;12.252;2023-03-01T03:58:07;12.63;;;9.00;;
38785;SDS011;24535;45.508;12.252;2023-03-01T04:00:35;13.68;;;9.68;;
38785;SDS011;24535;45.508;12.252;2023-03-01T04:03:01;15.00;;;10.35;;
38785;SDS011;24535;45.508;12.252;2023-03-01T04:05:27;13.23;;;9.60;;
38785;SDS011;24535;45.508;12.252;2023-03-01T04:07:53;12.38;;;9.45;;
38785;SDS011;24535;45.508;12.252;2023-03-01T04:10:26;14.02;;;9.50;;
38785;SDS011;24535;45.508;12.252;2023-03-01T04:12:52;12.85;;;9.32;;
38785;SDS011;24535;45.508;12.252;2023-03-01T04:15:18;11.50;;;9.00;;
38785;SDS011;24535;45.508;12.252;2023-03-01T04:17:44;12.82;;;9.10;;
38785;SDS011;24535;45.508;12.252;2023-03-01T04:20:12;12.80;;;9.82;;
38785;SDS011;24535;45.508;12.252;2023-03-01T04:22:42;11.32;;;8.43;;
38785;SDS011;24535;45.508;12.252;2023-03-01T04:27:39;13.93;;;10.40;;
38785;SDS011;24535;45.508;12.252;2023-03-01T04:30:05;15.13;;;10.25;;
38785;SDS011;24535;45.508;12.252;2023-03-01T04:32:31;11.00;;;8.98;;
38785;SDS011;24535;45.508;12.252;2023-03-01T04:34:57;14.23;;;9.40;;
38785;SDS011;24535;45.508;12.252;2023-03-01T04:37:23;14.32;;;9.65;;
38785;SDS011;24535;45.508;12.252;2023-03-01T04:39:49;11.45;;;9.02;;
38785;SDS011;24535;45.508;12.252;2023-03-01T04:42:14;12.77;;;9.68;;
38785;SDS011;24535;45.508;12.252;2023-03-01T04:44:41;15.13;;;9.65;;
38785;SDS011;24535;45.508;12.252;2023-03-01T04:47:08;17.67;;;9.98;;
38785;SDS011;24535;45.508;12.252;2023-03-01T04:49:33;13.70;;;9.80;;
38785;SDS011;24535;45.508;12.252;2023-03-01T04:51:59;11.25;;;9.65;;
38785;SDS011;24535;45.508;12.252;2023-03-01T04:54:27;12.70;;;9.35;;
38785;SDS011;24535;45.508;12.252;2023-03-01T04:56:53;15.00;;;9.98;;
38785;SDS011;24535;45.508;12.252;2023-03-01T04:59:19;14.63;;;10.45;;
38785;SDS011;24535;45.508;12.252;2023-03-01T05:01:47;13.10;;;9.73;;
38785;SDS011;24535;45.508;12.252;2023-03-01T05:04:14;13.88;;;10.35;;
38785;SDS011;24535;45.508;12.252;2023-03-01T05:06:40;14.52;;;10.55;;
38785;SDS011;24535;45.508;12.252;2023-03-01T05:09:05;13.10;;;9.30;;
38785;SDS011;24535;45.508;12.252;2023-03-01T05:11:31;14.65;;;10.48;;
38785;SDS011;24535;45.508;12.252;2023-03-01T05:14:01;14.70;;;10.70;;
38785;SDS011;24535;45.508;12.252;2023-03-01T05:16:27;14.10;;;10.95;;
38785;SDS011;24535;45.508;12.252;2023-03-01T05:18:53;15.52;;;10.15;;
38785;SDS011;24535;45.508;12.252;2023-03-01T05:21:20;17.58;;;11.20;;
38785;SDS011;24535;45.508;12.252;2023-03-01T05:23:46;19.02;;;11.20;;
38785;SDS011;24535;45.508;12.252;2023-03-01T05:26:12;12.60;;;10.70;;
38785;SDS011;24535;45.508;12.252;2023-03-01T05:28:38;17.80;;;9.98;;
38785;SDS011;24535;45.508;12.252;2023-03-01T05:31:04;12.82;;;10.00;;
38785;SDS011;24535;45.508;12.252;2023-03-01T05:33:38;14.48;;;9.50;;
38785;SDS011;24535;45.508;12.252;2023-03-01T05:36:05;11.98;;;9.32;;
38785;SDS011;24535;45.508;12.252;2023-03-01T05:38:32;13.13;;;9.63;;
38785;SDS011;24535;45.508;12.252;2023-03-01T05:40:58;12.30;;;9.05;;
38785;SDS011;24535;45.508;12.252;2023-03-01T05:43:23;13.02;;;9.63;;
38785;SDS011;24535;45.508;12.252;2023-03-01T05:45:48;12.13;;;8.80;;
38785;SDS011;24535;45.508;12.252;2023-03-01T05:48:14;11.90;;;8.32;;
38785;SDS011;24535;45.508;12.252;2023-03-01T05:50:41;10.02;;;8.38;;
38785;SDS011;24535;45.508;12.252;2023-03-01T05:53:10;11.95;;;8.70;;
38785;SDS011;24535;45.508;12.252;2023-03-01T05:55:46;12.70;;;8.10;;
38785;SDS011;24535;45.508;12.252;2023-03-01T05:58:19;10.98;;;8.38;;
38785;SDS011;24535;45.508;12.252;2023-03-01T06:00:45;14.32;;;8.80;;
38785;SDS011;24535;45.508;12.252;2023-03-01T06:03:13;13.52;;;9.18;;
38785;SDS011;24535;45.508;12.252;2023-03-01T06:05:41;10.40;;;8.05;;
38785;SDS011;24535;45.508;12.252;2023-03-01T06:08:08;11.20;;;8.10;;
38785;SDS011;24535;45.508;12.252;2023-03-01T06:10:34;11.48;;;8.07;;
38785;SDS011;24535;45.508;12.252;2023-03-01T06:13:00;11.45;;;8.25;;
38785;SDS011;24535;45.508;12.252;2023-03-01T06:15:26;9.35;;;7.25;;
38785;SDS011;24535;45.508;12.252;2023-03-01T06:17:53;13.05;;;9.02;;
38785;SDS011;24535;45.508;12.252;2023-03-01T06:20:22;10.65;;;8.65;;
38785;SDS011;24535;45.508;12.252;2023-03-01T06:22:49;11.50;;;8.30;;
38785;SDS011;24535;45.508;12.252;2023-03-01T06:25:16;12.07;;;8.18;;
38785;SDS011;24535;45.508;12.252;2023-03-01T06:27:44;12.65;;;9.05;;
38785;SDS011;24535;45.508;12.252;2023-03-01T06:30:11;10.50;;;7.63;;
38785;SDS011;24535;45.508;12.252;2023-03-01T06:32:40;14.00;;;8.57;;
38785;SDS011;24535;45.508;12.252;2023-03-01T06:35:09;10.38;;;7.85;;
38785;SDS011;24535;45.508;12.252;2023-03-01T06:37:36;11.15;;;7.78;;
38785;SDS011;24535;45.508;12.252;2023-03-01T06:40:04;13.30;;;8.07;;
38785;SDS011;24535;45.508;12.252;2023-03-01T06:42:43;16.73;;;8.38;;
38785;SDS011;24535;45.508;12.252;2023-03-01T06:45:14;11.95;;;9.27;;
38785;SDS011;24535;45.508;12.252;2023-03-01T06:47:40;11.38;;;8.27;;
38785;SDS011;24535;45.508;12.252;2023-03-01T06:50:05;13.15;;;8.98;;
38785;SDS011;24535;45.508;12.252;2023-03-01T06:52:31;12.13;;;8.57;;
38785;SDS011;24535;45.508;12.252;2023-03-01T06:54:57;11.55;;;9.13;;
38785;SDS011;24535;45.508;12.252;2023-03-01T06:57:22;13.52;;;8.27;;
38785;SDS011;24535;45.508;12.252;2023-03-01T06:59:48;11.32;;;8.52;;
38785;SDS011;24535;45.508;12.252;2023-03-01T07:02:13;14.50;;;9.18;;
38785;SDS011;24535;45.508;12.252;2023-03-01T07:04:40;10.32;;;8.80;;
38785;SDS011;24535;45.508;12.252;2023-03-01T07:07:06;13.60;;;7.85;;
38785;SDS011;24535;45.508;12.252;2023-03-01T07:09:32;13.15;;;7.72;;
38785;SDS011;24535;45.508;12.252;2023-03-01T07:11:57;11.80;;;7.75;;
38785;SDS011;24535;45.508;12.252;2023-03-01T07:14:23;12.63;;;8.02;;
38785;SDS011;24535;45.508;12.252;2023-03-01T07:16:52;10.52;;;7.70;;
38785;SDS011;24535;45.508;12.252;2023-03-01T07:19:18;10.85;;;6.85;;
38785;SDS011;24535;45.508;12.252;2023-03-01T07:21:44;11.15;;;7.47;;
38785;SDS011;24535;45.508;12.252;2023-03-01T07:24:09;9.57;;;6.75;;
38785;SDS011;24535;45.508;12.252;2023-03-01T07:26:35;11.00;;;7.03;;
38785;SDS011;24535;45.508;12.252;2023-03-01T07:29:02;8.80;;;7.00;;
38785;SDS011;24535;45.508;12.252;2023-03-01T07:31:29;14.38;;;7.80;;
38785;SDS011;24535;45.508;12.252;2023-03-01T07:33:55;16.00;;;7.25;;
38785;SDS011;24535;45.508;12.252;2023-03-01T07:36:21;11.95;;;8.02;;
38785;SDS011;24535;45.508;12.252;2023-03-01T07:38:47;10.57;;;7.10;;
38785;SDS011;24535;45.508;12.252;2023-03-01T07:41:12;9.48;;;7.00;;
38785;SDS011;24535;45.508;12.252;2023-03-01T07:43:38;11.20;;;7.10;;
38785;SDS011;24535;45.508;12.252;2023-03-01T07:46:04;8.95;;;7.00;;
38785;SDS011;24535;45.508;12.252;2023-03-01T07:48:30;11.52;;;7.28;;
38785;SDS011;24535;45.508;12.252;2023-03-01T07:50:59;10.98;;;7.07;;
38785;SDS011;24535;45.508;12.252;2023-03-01T07:53:26;10.38;;;6.85;;
38785;SDS011;24535;45.508;12.252;2023-03-01T07:56:01;9.23;;;7.18;;
38785;SDS011;24535;45.508;12.252;2023-03-01T07:58:34;9.48;;;6.72;;
38785;SDS011;24535;45.508;12.252;2023-03-01T08:01:01;10.25;;;7.10;;
38785;SDS011;24535;45.508;12.252;2023-03-01T08:03:31;8.50;;;6.40;;
38785;SDS011;24535;45.508;12.252;2023-03-01T08:05:59;10.57;;;6.95;;
38785;SDS011;24535;45.508;12.252;2023-03-01T08:08:25;11.10;;;7.30;;
38785;SDS011;24535;45.508;12.252;2023-03-01T08:10:51;11.27;;;7.45;;
38785;SDS011;24535;45.508;12.252;2023-03-01T08:13:17;11.38;;;6.75;;
38785;SDS011;24535;45.508;12.252;2023-03-01T08:15:47;11.55;;;7.32;;
38785;SDS011;24535;45.508;12.252;2023-03-01T08:18:14;15.18;;;7.80;;
38785;SDS011;24535;45.508;12.252;2023-03-01T08:20:40;8.75;;;6.55;;
38785;SDS011;24535;45.508;12.252;2023-03-01T08:23:05;10.23;;;7.05;;
38785;SDS011;24535;45.508;12.252;2023-03-01T08:25:31;13.05;;;7.00;;
38785;SDS011;24535;45.508;12.252;2023-03-01T08:27:56;9.98;;;7.38;;
38785;SDS011;24535;45.508;12.252;2023-03-01T08:30:22;9.05;;;6.97;;
38785;SDS011;24535;45.508;12.252;2023-03-01T08:32:49;10.18;;;6.65;;
38785;SDS011;24535;45.508;12.252;2023-03-01T08:35:15;12.68;;;7.72;;
38785;SDS011;24535;45.508;12.252;2023-03-01T08:37:40;11.02;;;6.55;;
38785;SDS011;24535;45.508;12.252;2023-03-01T08:40:06;11.27;;;7.55;;
38785;SDS011;24535;45.508;12.252;2023-03-01T08:42:32;9.35;;;7.35;;
38785;SDS011;24535;45.508;12.252;2023-03-01T08:44:58;11.07;;;6.63;;
38785;SDS011;24535;45.508;12.252;2023-03-01T08:47:23;11.38;;;6.47;;
38785;SDS011;24535;45.508;12.252;2023-03-01T08:49:50;9.45;;;6.47;;
38785;SDS011;24535;45.508;12.252;2023-03-01T08:52:15;8.48;;;5.68;;
38785;SDS011;24535;45.508;12.252;2023-03-01T08:54:41;7.85;;;5.90;;
38785;SDS011;24535;45.508;12.252;2023-03-01T08:57:06;13.13;;;6.32;;
38785;SDS011;24535;45.508;12.252;2023-03-01T08:59:32;9.68;;;5.45;;
38785;SDS011;24535;45.508;12.252;2023-03-01T09:02:04;9.35;;;6.50;;
38785;SDS011;24535;45.508;12.252;2023-03-01T09:04:31;12.57;;;6.50;;
38785;SDS011;24535;45.508;12.252;2023-03-01T09:06:56;8.00;;;5.43;;
38785;SDS011;24535;45.508;12.252;2023-03-01T09:09:22;9.85;;;6.05;;
38785;SDS011;24535;45.508;12.252;2023-03-01T09:11:47;10.45;;;6.47;;
38785;SDS011;24535;45.508;12.252;2023-03-01T09:14:15;11.70;;;6.78;;
38785;SDS011;24535;45.508;12.252;2023-03-01T09:16:41;11.43;;;6.75;;
38785;SDS011;24535;45.508;12.252;2023-03-01T09:19:07;17.80;;;7.00;;
38785;SDS011;24535;45.508;12.252;2023-03-01T09:21:32;9.82;;;7.22;;
38785;SDS011;24535;45.508;12.252;2023-03-01T09:23:57;10.63;;;6.90;;
38785;SDS011;24535;45.508;12.252;2023-03-01T09:26:23;12.25;;;8.02;;
38785;SDS011;24535;45.508;12.252;2023-03-01T09:28:50;9.27;;;6.38;;
38785;SDS011;24535;45.508;12.252;2023-03-01T09:31:19;9.10;;;6.35;;
38785;SDS011;24535;45.508;12.252;2023-03-01T09:33:46;11.15;;;6.95;;
38785;SDS011;24535;45.508;12.252;2023-03-01T09:36:15;10.13;;;7.22;;
38785;SDS011;24535;45.508;12.252;2023-03-01T09:38:43;12.75;;;6.93;;
38785;SDS011;24535;45.508;12.252;2023-03-01T09:41:19;10.80;;;6.70;;
38785;SDS011;24535;45.508;12.252;2023-03-01T09:43:51;11.13;;;6.90;;
38785;SDS011;24535;45.508;12.252;2023-03-01T09:46:22;9.77;;;6.40;;
38785;SDS011;24535;45.508;12.252;2023-03-01T09:51:19;15.30;;;7.53;;
38785;SDS011;24535;45.508;12.252;2023-03-01T09:53:56;8.02;;;6.28;;
38785;SDS011;24535;45.508;12.252;2023-03-01T09:56:32;9.63;;;6.40;;
38785;SDS011;24535;45.508;12.252;2023-03-01T10:04:44;10.85;;;6.35;;
38785;SDS011;24535;45.508;12.252;2023-03-01T10:09:56;10.90;;;7.00;;
38785;SDS011;24535;45.508;12.252;2023-03-01T10:12:24;10.95;;;6.75;;
38785;SDS011;24535;45.508;12.252;2023-03-01T10:17:32;13.25;;;6.50;;
38785;SDS011;24535;45.508;12.252;2023-03-01T10:22:41;11.23;;;6.68;;
38785;SDS011;24535;45.508;12.252;2023-03-01T10:25:08;13.82;;;6.97;;
38785;SDS011;24535;45.508;12.252;2023-03-01T10:27:41;10.40;;;7.07;;
38785;SDS011;24535;45.508;12.252;2023-03-01T10:30:21;13.80;;;7.20;;
38785;SDS011;24535;45.508;12.252;2023-03-01T10:32:55;12.65;;;7.00;;
38785;SDS011;24535;45.508;12.252;2023-03-01T10:35:24;16.70;;;6.65;;
38785;SDS011;24535;45.508;12.252;2023-03-01T10:40:57;16.95;;;6.53;;
38785;SDS011;24535;45.508;12.252;2023-03-01T10:43:32;15.60;;;6.72;;
38785;SDS011;24535;45.508;12.252;2023-03-01T10:51:50;12.75;;;6.35;;
38785;SDS011;24535;45.508;12.252;2023-03-01T10:56:54;15.45;;;6.32;;
38785;SDS011;24535;45.508;12.252;2023-03-01T11:04:34;11.15;;;6.10;;
38785;SDS011;24535;45.508;12.252;2023-03-01T11:07:00;10.55;;;5.53;;
38785;SDS011;24535;45.508;12.252;2023-03-01T11:09:26;11.75;;;6.10;;
38785;SDS011;24535;45.508;12.252;2023-03-01T11:12:02;9.82;;;6.25;;
38785;SDS011;24535;45.508;12.252;2023-03-01T11:14:35;12.27;;;6.38;;
38785;SDS011;24535;45.508;12.252;2023-03-01T11:17:04;13.80;;;5.95;;
38785;SDS011;24535;45.508;12.252;2023-03-01T11:19:31;8.00;;;5.55;;
38785;SDS011;24535;45.508;12.252;2023-03-01T11:27:51;16.83;;;6.68;;
38785;SDS011;24535;45.508;12.252;2023-03-01T11:29:54;15.98;;;7.22;;
38785;SDS011;24535;45.508;12.252;2023-03-01T11:32:32;12.57;;;6.78;;
38785;SDS011;24535;45.508;12.252;2023-03-01T11:35:08;13.48;;;6.60;;
38785;SDS011;24535;45.508;12.252;2023-03-01T11:40:32;10.68;;;7.45;;
38785;SDS011;24535;45.508;12.252;2023-03-01T11:46:00;12.18;;;6.78;;
38785;SDS011;24535;45.508;12.252;2023-03-01T11:57:33;11.27;;;6.72;;
38785;SDS011;24535;45.508;12.252;2023-03-01T12:21:45;12.00;;;7.90;;
38785;SDS011;24535;45.508;12.252;2023-03-01T12:30:32;10.38;;;6.80;;
38785;SDS011;24535;45.508;12.252;2023-03-01T12:45:14;10.40;;;6.85;;
38785;SDS011;24535;45.508;12.252;2023-03-01T12:50:23;9.10;;;6.70;;
38785;SDS011;24535;45.508;12.252;2023-03-01T12:52:53;12.65;;;6.07;;
38785;SDS011;24535;45.508;12.252;2023-03-01T12:58:21;8.70;;;7.00;;
38785;SDS011;24535;45.508;12.252;2023-03-01T13:03:52;10.30;;;7.03;;
38785;SDS011;24535;45.508;12.252;2023-03-01T13:11:55;8.60;;;7.40;;
38785;SDS011;24535;45.508;12.252;2023-03-01T13:16:50;9.85;;;7.57;;
38785;SDS011;24535;45.508;12.252;2023-03-01T13:21:44;9.63;;;7.38;;
38785;SDS011;24535;45.508;12.252;2023-03-01T13:29:45;7.95;;;6.45;;
38785;SDS011;24535;45.508;12.252;2023-03-01T13:34:58;9.48;;;6.75;;
38785;SDS011;24535;45.508;12.252;2023-03-01T13:37:25;10.60;;;7.03;;
38785;SDS011;24535;45.508;12.252;2023-03-01T13:42:49;9.63;;;6.68;;
38785;SDS011;24535;45.508;12.252;2023-03-01T13:47:44;10.82;;;6.90;;
38785;SDS011;24535;45.508;12.252;2023-03-01T13:52:54;12.18;;;7.57;;
38785;SDS011;24535;45.508;12.252;2023-03-01T13:55:38;9.80;;;6.05;;
38785;SDS011;24535;45.508;12.252;2023-03-01T13:58:19;8.25;;;6.07;;
38785;SDS011;24535;45.508;12.252;2023-03-01T14:00:54;8.60;;;6.00;;
38785;SDS011;24535;45.508;12.252;2023-03-01T14:03:21;7.72;;;5.38;;
38785;SDS011;24535;45.508;12.252;2023-03-01T14:06:03;9.10;;;5.28;;
38785;SDS011;24535;45.508;12.252;2023-03-01T14:08:32;7.20;;;5.15;;
38785;SDS011;24535;45.508;12.252;2023-03-01T14:16:20;9.45;;;5.10;;
38785;SDS011;24535;45.508;12.252;2023-03-01T14:19:16;8.82;;;5.65;;
38785;SDS011;24535;45.508;12.252;2023-03-01T14:21:45;11.07;;;5.82;;
38785;SDS011;24535;45.508;12.252;2023-03-01T14:24:18;9.27;;;5.22;;
38785;SDS011;24535;45.508;12.252;2023-03-01T14:26:46;6.90;;;5.57;;
38785;SDS011;24535;45.508;12.252;2023-03-01T14:29:24;7.90;;;5.18;;
38785;SDS011;24535;45.508;12.252;2023-03-01T14:34:42;8.63;;;4.88;;
38785;SDS011;24535;45.508;12.252;2023-03-01T14:39:44;12.20;;;5.68;;
38785;SDS011;24535;45.508;12.252;2023-03-01T14:42:09;7.50;;;5.20;;
38785;SDS011;24535;45.508;12.252;2023-03-01T14:44:34;7.05;;;4.63;;
38785;SDS011;24535;45.508;12.252;2023-03-01T14:47:02;6.65;;;4.72;;
38785;SDS011;24535;45.508;12.252;2023-03-01T14:49:30;8.68;;;4.32;;
38785;SDS011;24535;45.508;12.252;2023-03-01T14:52:01;8.40;;;3.97;;
38785;SDS011;24535;45.508;12.252;2023-03-01T14:57:15;5.57;;;4.43;;
38785;SDS011;24535;45.508;12.252;2023-03-01T14:59:42;7.63;;;3.88;;
38785;SDS011;24535;45.508;12.252;2023-03-01T15:02:11;4.28;;;3.45;;
38785;SDS011;24535;45.508;12.252;2023-03-01T15:04:48;7.28;;;4.65;;
38785;SDS011;24535;45.508;12.252;2023-03-01T15:07:16;9.07;;;4.18;;
38785;SDS011;24535;45.508;12.252;2023-03-01T15:09:43;7.82;;;4.25;;
38785;SDS011;24535;45.508;12.252;2023-03-01T15:14:53;6.45;;;3.65;;
38785;SDS011;24535;45.508;12.252;2023-03-01T15:17:40;7.28;;;4.90;;
38785;SDS011;24535;45.508;12.252;2023-03-01T15:20:15;5.20;;;3.92;;
38785;SDS011;24535;45.508;12.252;2023-03-01T15:22:45;9.70;;;4.43;;
38785;SDS011;24535;45.508;12.252;2023-03-01T15:25:21;5.88;;;4.45;;
38785;SDS011;24535;45.508;12.252;2023-03-01T15:27:49;7.28;;;4.28;;
38785;SDS011;24535;45.508;12.252;2023-03-01T15:35:45;7.80;;;4.50;;
38785;SDS011;24535;45.508;12.252;2023-03-01T15:38:26;9.85;;;4.13;;
38785;SDS011;24535;45.508;12.252;2023-03-01T15:40:56;5.13;;;3.63;;
38785;SDS011;24535;45.508;12.252;2023-03-01T15:43:42;7.45;;;4.22;;
38785;SDS011;24535;45.508;12.252;2023-03-01T15:46:20;5.68;;;4.38;;
38785;SDS011;24535;45.508;12.252;2023-03-01T15:51:44;13.02;;;4.13;;
38785;SDS011;24535;45.508;12.252;2023-03-01T15:54:17;7.35;;;3.88;;
38785;SDS011;24535;45.508;12.252;2023-03-01T15:56:44;8.80;;;4.43;;
38785;SDS011;24535;45.508;12.252;2023-03-01T15:59:10;10.10;;;4.38;;
38785;SDS011;24535;45.508;12.252;2023-03-01T16:01:43;6.90;;;4.20;;
38785;SDS011;24535;45.508;12.252;2023-03-01T16:04:11;14.88;;;4.60;;
38785;SDS011;24535;45.508;12.252;2023-03-01T16:06:41;9.80;;;4.60;;
38785;SDS011;24535;45.508;12.252;2023-03-01T16:09:07;9.57;;;4.55;;
38785;SDS011;24535;45.508;12.252;2023-03-01T16:11:33;11.57;;;5.82;;
38785;SDS011;24535;45.508;12.252;2023-03-01T16:14:01;7.43;;;5.13;;
38785;SDS011;24535;45.508;12.252;2023-03-01T16:16:27;6.55;;;4.47;;
38785;SDS011;24535;45.508;12.252;2023-03-01T16:18:52;6.68;;;4.03;;
38785;SDS011;24535;45.508;12.252;2023-03-01T16:21:23;7.97;;;4.43;;
38785;SDS011;24535;45.508;12.252;2023-03-01T16:23:49;5.40;;;4.55;;
38785;SDS011;24535;45.508;12.252;2023-03-01T16:26:16;5.97;;;4.60;;
38785;SDS011;24535;45.508;12.252;2023-03-01T16:28:43;7.10;;;4.10;;
38785;SDS011;24535;45.508;12.252;2023-03-01T16:31:09;6.13;;;4.72;;
38785;SDS011;24535;45.508;12.252;2023-03-01T16:33:35;5.63;;;4.10;;
38785;SDS011;24535;45.508;12.252;2023-03-01T16:36:09;7.20;;;5.13;;
38785;SDS011;24535;45.508;12.252;2023-03-01T16:38:36;10.30;;;5.05;;
38785;SDS011;24535;45.508;12.252;2023-03-01T16:41:03;12.00;;;6.32;;
38785;SDS011;24535;45.508;12.252;2023-03-01T16:43:29;9.63;;;5.93;;
38785;SDS011;24535;45.508;12.252;2023-03-01T16:45:55;9.68;;;6.07;;
38785;SDS011;24535;45.508;12.252;2023-03-01T16:48:21;9.13;;;5.45;;
38785;SDS011;24535;45.508;12.252;2023-03-01T16:50:54;8.45;;;4.13;;
38785;SDS011;24535;45.508;12.252;2023-03-01T16:53:21;5.45;;;3.80;;
38785;SDS011;24535;45.508;12.252;2023-03-01T16:55:52;5.85;;;4.13;;
38785;SDS011;24535;45.508;12.252;2023-03-01T16:58:18;5.10;;;3.75;;
38785;SDS011;24535;45.508;12.252;2023-03-01T17:00:44;6.18;;;4.80;;
38785;SDS011;24535;45.508;12.252;2023-03-01T17:03:09;6.20;;;4.57;;
38785;SDS011;24535;45.508;12.252;2023-03-01T17:05:34;6.57;;;3.92;;
38785;SDS011;24535;45.508;12.252;2023-03-01T17:08:00;5.32;;;3.95;;
38785;SDS011;24535;45.508;12.252;2023-03-01T17:10:25;6.47;;;4.28;;
38785;SDS011;24535;45.508;12.252;2023-03-01T17:12:51;5.57;;;3.45;;
38785;SDS011;24535;45.508;12.252;2023-03-01T17:15:16;5.53;;;3.58;;